createdAt,value
2023-04-02T00:02:32.150Z,8.31
2023-04-02T00:05:31.303Z,8.36
2023-04-02T00:08:03.367Z,8.40
2023-04-02T00:10:33.748Z,8.51
2023-04-02T00:13:07.774Z,8.57
2023-04-02T00:15:36.854Z,8.60
2023-04-02T00:18:06.048Z,8.55
2023-04-02T00:20:42.689Z,8.59
2023-04-02T00:23:13.973Z,8.71
2023-04-02T00:25:46.346Z,8.56
2023-04-02T00:28:15.965Z,7.92
2023-04-02T00:30:49.144Z,7.08
2023-04-02T00:33:19.535Z,6.66
2023-04-02T00:35:49.560Z,6.46
2023-04-02T00:38:23.748Z,6.37
2023-04-02T00:40:53.773Z,6.28
2023-04-02T00:43:22.808Z,6.02
2023-04-02T00:45:56.308Z,6.26
2023-04-02T00:48:42.077Z,6.26
2023-04-02T00:51:17.001Z,6.28
2023-04-02T00:53:49.191Z,6.23
2023-04-02T00:56:22.182Z,6.19
2023-04-02T00:58:54.526Z,6.14
2023-04-02T01:01:27.609Z,6.12
2023-04-02T01:03:58.327Z,6.06
2023-04-02T01:06:31.266Z,6.08
2023-04-02T01:09:13.336Z,6.08
2023-04-02T01:11:59.537Z,6.03
2023-04-02T01:14:41.081Z,5.97
2023-04-02T01:17:23.065Z,5.92
2023-04-02T01:20:38.808Z,6.02
2023-04-02T01:23:14.606Z,5.75
2023-04-02T01:25:48.283Z,6.12
2023-04-02T01:28:20.837Z,6.06
2023-04-02T01:30:54.149Z,6.26
2023-04-02T01:33:24.843Z,6.26
2023-04-02T01:35:58.599Z,6.25
2023-04-02T01:38:33.644Z,6.22
2023-04-02T01:41:08.861Z,6.19
2023-04-02T01:43:44.973Z,6.18
2023-04-02T01:46:27.237Z,6.18
2023-04-02T01:48:55.466Z,6.16
2023-04-02T01:51:31.844Z,6.22
2023-04-02T01:54:02.249Z,6.28
2023-04-02T01:56:31.509Z,5.89
2023-04-02T01:59:01.298Z,6.32
2023-04-02T02:01:36.839Z,6.31
2023-04-02T02:04:06.051Z,6.39
2023-04-02T02:06:34.287Z,6.40
2023-04-02T02:09:04.818Z,6.33
2023-04-02T02:11:36.519Z,6.48
2023-04-02T02:14:14.128Z,6.49
2023-04-02T02:16:44.177Z,6.54
2023-04-02T02:19:24.164Z,6.54
2023-04-02T02:21:54.742Z,6.31
2023-04-02T02:24:25.219Z,6.61
2023-04-02T02:27:05.756Z,6.65
2023-04-02T02:29:38.345Z,6.48
2023-04-02T02:32:11.331Z,6.73
2023-04-02T02:34:42.420Z,6.64
2023-04-02T02:37:16.087Z,6.57
2023-04-02T02:39:46.575Z,6.55
2023-04-02T02:42:22.400Z,6.42
2023-04-02T02:44:52.221Z,6.24
2023-04-02T02:47:28.665Z,6.04
2023-04-02T02:50:01.417Z,5.87
2023-04-02T02:52:32.940Z,5.84
2023-04-02T02:55:04.523Z,5.86
2023-04-02T02:57:37.444Z,5.82
2023-04-02T03:00:09.830Z,5.83
2023-04-02T03:02:43.232Z,5.81
2023-04-02T03:05:19.583Z,5.77
2023-04-02T03:07:48.265Z,5.81
2023-04-02T03:10:20.588Z,5.84
2023-04-02T03:12:54.849Z,5.91
2023-04-02T03:15:28.579Z,5.95
2023-04-02T03:18:02.927Z,5.86
2023-04-02T03:20:37.578Z,5.87
2023-04-02T03:23:09.960Z,5.79
2023-04-02T03:25:42.834Z,5.71
2023-04-02T03:28:16.944Z,5.66
2023-04-02T03:30:50.022Z,5.47
2023-04-02T03:33:25.102Z,5.28
2023-04-02T03:35:59.206Z,5.32
2023-04-02T03:38:31.400Z,5.37
2023-04-02T03:41:08.618Z,5.45
2023-04-02T03:43:41.974Z,5.57
2023-04-02T03:46:24.501Z,5.68
2023-04-02T03:48:56.173Z,5.71
2023-04-02T03:51:29.032Z,5.58
2023-04-02T03:53:57.558Z,5.68
2023-04-02T03:56:31.529Z,5.67
2023-04-02T03:59:08.270Z,5.75
2023-04-02T04:01:42.921Z,5.81
2023-04-02T04:04:17.326Z,5.45
2023-04-02T04:06:47.667Z,5.80
2023-04-02T04:09:25.282Z,5.64
2023-04-02T04:11:57.468Z,5.61
2023-04-02T04:14:32.149Z,5.67
2023-04-02T04:17:05.504Z,5.87
2023-04-02T04:19:41.974Z,5.89
2023-04-02T04:22:18.010Z,5.87
2023-04-02T04:24:47.217Z,5.46
2023-04-02T04:27:25.175Z,5.74
2023-04-02T04:29:58.963Z,5.75
2023-04-02T04:32:33.886Z,5.71
2023-04-02T04:35:09.386Z,5.68
2023-04-02T04:37:43.310Z,5.64
2023-04-02T04:40:18.477Z,5.74
2023-04-02T04:42:49.756Z,5.83
2023-04-02T04:45:50.560Z,5.97
2023-04-02T04:48:22.461Z,6.72
2023-04-02T04:50:57.671Z,6.86
2023-04-02T04:53:27.615Z,7.63
2023-04-02T04:56:05.991Z,8.04
2023-04-02T04:58:51.135Z,9.20
2023-04-02T05:01:26.890Z,9.79
2023-04-02T05:04:01.660Z,9.92
2023-04-02T05:06:44.059Z,10.15
2023-04-02T05:09:18.931Z,10.18
2023-04-02T05:11:51.707Z,9.62
2023-04-02T05:14:30.991Z,10.67
2023-04-02T05:17:08.041Z,11.20
2023-04-02T05:19:43.366Z,11.73
2023-04-02T05:22:25.278Z,12.10
2023-04-02T05:25:01.209Z,12.11
2023-04-02T05:27:40.995Z,12.15
2023-04-02T05:30:20.256Z,12.50
2023-04-02T05:32:52.473Z,12.98
2023-04-02T05:35:25.797Z,13.36
2023-04-02T05:37:55.517Z,13.29
2023-04-02T05:40:28.573Z,13.41
2023-04-02T05:42:58.942Z,12.91
2023-04-02T05:45:32.913Z,13.17
2023-04-02T05:48:05.929Z,13.69
2023-04-02T05:50:37.906Z,13.81
2023-04-02T05:53:14.720Z,14.01
2023-04-02T05:55:53.313Z,14.08
2023-04-02T06:01:15.415Z,13.89
2023-04-02T06:03:51.960Z,13.52
2023-04-02T06:06:29.189Z,12.84
2023-04-02T06:09:05.660Z,13.22
2023-04-02T06:11:42.224Z,13.30
2023-04-02T06:14:13.054Z,14.11
2023-04-02T06:16:42.371Z,14.65
2023-04-02T06:19:20.743Z,14.49
2023-04-02T06:21:50.906Z,14.04
2023-04-02T06:24:25.008Z,14.32
2023-04-02T06:26:57.928Z,13.76
2023-04-02T06:29:34.139Z,13.94
2023-04-02T06:32:03.614Z,14.20
2023-04-02T06:34:33.072Z,14.54
2023-04-02T06:37:04.441Z,15.14
2023-04-02T06:39:33.696Z,15.11
2023-04-02T06:42:05.458Z,14.99
2023-04-02T06:44:36.811Z,15.94
2023-04-02T06:47:12.780Z,15.93
2023-04-02T06:49:46.733Z,15.76
2023-04-02T06:52:21.513Z,15.28
2023-04-02T06:54:50.846Z,15.15
2023-04-02T06:57:20.219Z,15.80
2023-04-02T06:59:48.233Z,15.22
2023-04-02T07:02:28.944Z,15.00
2023-04-02T07:05:02.415Z,15.93
2023-04-02T07:07:30.377Z,16.09
2023-04-02T07:09:59.756Z,16.35
2023-04-02T07:12:28.052Z,16.38
2023-04-02T07:14:55.973Z,16.66
2023-04-02T07:17:23.902Z,16.61
2023-04-02T07:19:51.855Z,16.39
2023-04-02T07:22:22.860Z,16.76
2023-04-02T07:24:51.284Z,16.62
2023-04-02T07:27:21.335Z,16.84
2023-04-02T07:29:49.498Z,17.17
2023-04-02T07:32:19.550Z,17.43
2023-04-02T07:34:49.008Z,17.87
2023-04-02T07:37:17.236Z,18.17
2023-04-02T07:39:45.172Z,18.55
2023-04-02T07:42:13.224Z,18.71
2023-04-02T07:44:44.908Z,18.38
2023-04-02T07:47:12.777Z,18.27
2023-04-02T07:49:40.919Z,18.73
2023-04-02T07:52:09.221Z,18.87
2023-04-02T07:54:38.470Z,19.02
2023-04-02T07:57:06.609Z,19.73
2023-04-02T07:59:34.912Z,19.10
2023-04-02T08:02:04.504Z,18.88
2023-04-02T08:04:32.817Z,18.68
2023-04-02T08:07:04.424Z,18.64
2023-04-02T08:09:32.251Z,18.50
2023-04-02T08:12:00.118Z,18.77
2023-04-02T08:14:27.993Z,19.60
2023-04-02T08:16:56.980Z,18.04
2023-04-02T08:19:26.488Z,18.25
2023-04-02T08:21:54.617Z,18.86
2023-04-02T08:24:22.685Z,18.84
2023-04-02T08:26:51.512Z,18.81
2023-04-02T08:29:19.484Z,19.03
2023-04-02T08:31:48.006Z,19.67
2023-04-02T08:34:16.364Z,19.50
2023-04-02T08:36:46.325Z,19.69
2023-04-02T08:39:14.790Z,20.36
2023-04-02T08:41:48.542Z,19.88
2023-04-02T08:44:38.550Z,19.03
2023-04-02T08:47:07.444Z,18.50
2023-04-02T08:49:41.153Z,18.89
2023-04-02T08:52:22.192Z,18.33
2023-04-02T08:54:51.871Z,18.74
2023-04-02T08:57:26.612Z,19.08
2023-04-02T09:00:00.192Z,19.95
2023-04-02T09:02:36.708Z,19.95
2023-04-02T09:05:08.296Z,20.29
2023-04-02T09:07:37.822Z,20.50
2023-04-02T09:10:06.292Z,20.83
2023-04-02T09:12:34.250Z,19.98
2023-04-02T09:15:18.581Z,21.05
2023-04-02T09:17:54.095Z,20.52
2023-04-02T09:20:26.402Z,19.96
2023-04-02T09:22:58.907Z,19.36
2023-04-02T09:25:29.886Z,18.50
2023-04-02T09:28:01.746Z,17.30
2023-04-02T09:30:42.876Z,16.66
2023-04-02T09:33:11.322Z,17.10
2023-04-02T09:35:56.473Z,17.24
2023-04-02T09:38:29.087Z,16.71
2023-04-02T09:41:00.956Z,16.26
2023-04-02T09:43:30.376Z,16.63
2023-04-02T09:46:01.402Z,16.68
2023-04-02T09:48:32.818Z,16.21
2023-04-02T09:51:12.375Z,17.06
2023-04-02T09:53:43.080Z,17.76
2023-04-02T09:56:13.900Z,18.21
2023-04-02T09:58:44.204Z,17.70
2023-04-02T10:01:31.537Z,16.77
2023-04-02T10:04:00.552Z,16.52
2023-04-02T10:06:30.405Z,17.35
2023-04-02T10:09:20.585Z,17.97
2023-04-02T10:11:48.705Z,18.82
2023-04-02T10:14:24.089Z,18.19
2023-04-02T10:16:56.436Z,17.60
2023-04-02T10:19:29.885Z,17.86
2023-04-02T10:22:01.515Z,18.53
2023-04-02T10:24:30.772Z,19.58
2023-04-02T10:27:06.790Z,20.06
2023-04-02T10:30:04.057Z,18.64
2023-04-02T10:32:36.723Z,19.43
2023-04-02T10:35:12.665Z,20.66
2023-04-02T10:38:11.166Z,21.12
2023-04-02T10:40:44.944Z,21.28
2023-04-02T10:43:40.258Z,20.81
2023-04-02T10:46:16.151Z,20.82
2023-04-02T10:48:53.535Z,21.04
2023-04-02T10:51:33.328Z,19.58
2023-04-02T10:54:07.106Z,19.09
2023-04-02T10:56:48.033Z,18.83
2023-04-02T10:59:22.507Z,20.34
2023-04-02T11:01:52.668Z,21.25
2023-04-02T11:04:25.383Z,21.15
2023-04-02T11:07:11.162Z,21.71
2023-04-02T11:09:45.701Z,22.03
2023-04-02T11:12:23.753Z,22.68
2023-04-02T11:14:53.307Z,23.27
2023-04-02T11:17:22.949Z,22.60
2023-04-02T11:19:51.206Z,21.15
2023-04-02T11:22:21.858Z,21.15
2023-04-02T11:24:51.722Z,20.10
2023-04-02T11:27:27.451Z,20.31
2023-04-02T11:30:06.784Z,20.16
2023-04-02T11:32:37.416Z,19.05
2023-04-02T11:35:37.625Z,19.68
2023-04-02T11:38:38.787Z,20.38
2023-04-02T11:41:07.009Z,20.09
2023-04-02T11:44:03.541Z,20.32
2023-04-02T11:46:46.615Z,20.86
2023-04-02T11:49:41.608Z,20.34
2023-04-02T11:52:32.393Z,20.89
2023-04-02T11:55:33.739Z,21.40
2023-04-02T11:58:38.298Z,22.90
2023-04-02T12:01:45.416Z,23.12
2023-04-02T12:04:45.741Z,20.56
2023-04-02T12:07:46.743Z,19.27
2023-04-02T12:10:19.323Z,19.84
2023-04-02T12:12:47.517Z,21.18
2023-04-02T12:15:42.472Z,19.28
2023-04-02T12:18:17.151Z,18.26
2023-04-02T12:20:52.911Z,17.88
2023-04-02T12:23:23.745Z,17.67
2023-04-02T12:25:58.441Z,18.65
2023-04-02T12:28:28.949Z,19.59
2023-04-02T12:31:13.988Z,19.74
2023-04-02T12:33:42.935Z,20.03
2023-04-02T12:36:23.880Z,19.58
2023-04-02T12:38:54.467Z,19.66
2023-04-02T12:41:25.107Z,19.59
2023-04-02T12:43:59.790Z,19.39
2023-04-02T12:46:28.893Z,19.69
2023-04-02T12:49:03.205Z,20.30
2023-04-02T12:51:33.101Z,19.69
2023-04-02T12:54:01.207Z,19.29
2023-04-02T12:56:29.154Z,18.79
2023-04-02T12:58:58.153Z,18.53
2023-04-02T13:01:28.644Z,18.41
2023-04-02T13:04:04.974Z,18.08
2023-04-02T13:06:35.679Z,17.80
2023-04-02T13:09:06.674Z,17.49
2023-04-02T13:11:37.225Z,17.49
2023-04-02T13:14:07.486Z,17.54
2023-04-02T13:16:37.394Z,17.56
2023-04-02T13:19:27.829Z,17.61
2023-04-02T13:22:01.746Z,18.10
2023-04-02T13:24:32.374Z,17.98
2023-04-02T13:27:02.238Z,17.47
2023-04-02T13:29:31.373Z,17.97
2023-04-02T13:32:01.230Z,17.97
2023-04-02T13:34:29.705Z,17.74
2023-04-02T13:36:59.686Z,18.03
2023-04-02T13:39:30.263Z,17.75
2023-04-02T13:42:00.144Z,17.84
2023-04-02T13:44:30.360Z,17.99
2023-04-02T13:46:59.804Z,17.45
2023-04-02T13:49:29.570Z,17.40
2023-04-02T13:52:03.352Z,17.40
2023-04-02T13:54:35.090Z,17.47
2023-04-02T13:57:03.239Z,17.50
2023-04-02T13:59:31.526Z,17.66
2023-04-02T14:02:05.616Z,17.61
2023-04-02T14:04:40.207Z,17.57
2023-04-02T14:07:33.217Z,17.91
2023-04-02T14:10:06.515Z,17.93
2023-04-02T14:12:47.202Z,17.90
2023-04-02T14:15:29.139Z,18.08
2023-04-02T14:18:13.845Z,17.99
2023-04-02T14:20:53.622Z,17.75
2023-04-02T14:23:42.593Z,17.83
2023-04-02T14:26:19.823Z,17.67
2023-04-02T14:28:58.568Z,17.40
2023-04-02T14:31:35.963Z,17.08
2023-04-02T14:34:12.138Z,16.84
2023-04-02T14:36:56.517Z,17.28
2023-04-02T14:39:38.195Z,17.40
2023-04-02T14:42:13.906Z,17.45
2023-04-02T14:44:46.835Z,17.37
2023-04-02T14:47:20.119Z,17.18
2023-04-02T14:49:51.664Z,17.30
2023-04-02T14:52:24.634Z,17.18
2023-04-02T14:54:57.642Z,17.32
2023-04-02T14:57:30.814Z,17.24
2023-04-02T15:00:03.905Z,17.24
2023-04-02T15:02:39.388Z,17.21
2023-04-02T15:05:17.646Z,17.11
2023-04-02T15:07:51.802Z,16.99
2023-04-02T15:10:27.505Z,17.06
2023-04-02T15:12:56.720Z,16.73
2023-04-02T15:15:42.593Z,16.72
2023-04-02T15:18:14.733Z,16.64
2023-04-02T15:20:52.588Z,16.58
2023-04-02T15:23:32.786Z,16.70
2023-04-02T15:26:25.898Z,16.76
2023-04-02T15:29:04.941Z,16.77
2023-04-02T15:31:36.860Z,16.66
2023-04-02T15:34:18.424Z,16.52
2023-04-02T15:37:00.332Z,16.49
2023-04-02T15:39:40.158Z,16.45
2023-04-02T15:42:20.009Z,16.43
2023-04-02T15:45:03.250Z,16.19
2023-04-02T15:47:39.837Z,16.27
2023-04-02T15:50:16.514Z,16.23
2023-04-02T15:52:54.549Z,16.22
2023-04-02T15:55:26.756Z,16.21
2023-04-02T15:58:19.550Z,16.18
2023-04-02T16:00:57.689Z,16.01
2023-04-02T16:03:52.947Z,16.01
2023-04-02T16:06:28.071Z,15.97
2023-04-02T16:09:07.526Z,15.91
2023-04-02T16:11:36.451Z,15.72
2023-04-02T16:14:18.032Z,15.87
2023-04-02T16:16:49.157Z,15.32
2023-04-02T16:19:27.080Z,15.70
2023-04-02T16:22:02.586Z,15.69
2023-04-02T16:24:30.799Z,15.63
2023-04-02T16:27:11.806Z,15.55
2023-04-02T16:29:55.706Z,15.56
2023-04-02T16:32:43.907Z,15.49
2023-04-02T16:35:41.849Z,14.95
2023-04-02T16:38:23.404Z,15.36
2023-04-02T16:41:07.885Z,15.23
2023-04-02T16:43:47.466Z,15.22
2023-04-02T16:46:38.219Z,15.16
2023-04-02T16:49:18.806Z,15.08
2023-04-02T16:51:58.164Z,15.01
2023-04-02T16:54:32.762Z,14.72
2023-04-02T16:57:18.935Z,14.86
2023-04-02T16:59:57.541Z,14.80
2023-04-02T17:02:40.008Z,14.75
2023-04-02T17:05:20.454Z,14.63
2023-04-02T17:08:01.600Z,14.62
2023-04-02T17:10:32.634Z,14.16
2023-04-02T17:13:14.225Z,14.47
2023-04-02T17:15:43.456Z,14.31
2023-04-02T17:18:19.843Z,14.24
2023-04-02T17:20:48.098Z,14.06
2023-04-02T17:23:17.170Z,14.04
2023-04-02T17:25:51.610Z,14.02
2023-04-02T17:28:26.620Z,13.97
2023-04-02T17:30:58.755Z,13.70
2023-04-02T17:33:28.598Z,13.85
2023-04-02T17:36:25.249Z,13.85
2023-04-02T17:39:06.079Z,13.83
2023-04-02T17:41:41.525Z,13.41
2023-04-02T17:44:27.971Z,13.77
2023-04-02T17:47:02.174Z,13.76
2023-04-02T17:49:42.539Z,13.72
2023-04-02T17:52:20.517Z,13.69
2023-04-02T17:54:59.212Z,13.61
2023-04-02T17:57:38.907Z,13.57
2023-04-02T18:00:33.854Z,13.49
2023-04-02T18:03:19.654Z,13.45
2023-04-02T18:05:55.785Z,13.40
2023-04-02T18:08:34.697Z,13.36
2023-04-02T18:11:11.104Z,13.32
2023-04-02T18:13:47.723Z,12.75
2023-04-02T18:16:28.344Z,13.07
2023-04-02T18:19:11.379Z,13.10
2023-04-02T18:21:47.142Z,13.06
2023-04-02T18:24:34.576Z,13.02
2023-04-02T18:27:25.408Z,12.89
2023-04-02T18:30:00.965Z,12.85
2023-04-02T18:32:44.762Z,12.76
2023-04-02T18:35:19.181Z,12.67
2023-04-02T18:38:02.102Z,12.66
2023-04-02T18:40:43.361Z,12.67
2023-04-02T18:43:22.106Z,12.69
2023-04-02T18:45:59.991Z,12.67
2023-04-02T18:48:40.894Z,12.66
2023-04-02T18:51:15.095Z,12.63
2023-04-02T18:53:44.694Z,12.65
2023-04-02T18:56:15.369Z,12.65
2023-04-02T18:58:52.871Z,12.63
2023-04-02T19:01:27.966Z,12.55
2023-04-02T19:04:01.964Z,12.54
2023-04-02T19:06:37.791Z,12.47
2023-04-02T19:09:15.108Z,12.53
2023-04-02T19:11:43.207Z,12.48
2023-04-02T19:14:14.411Z,12.46
2023-04-02T19:17:03.415Z,12.42
2023-04-02T19:19:41.048Z,12.04
2023-04-02T19:22:17.534Z,12.32
2023-04-02T19:25:13.842Z,12.28
2023-04-02T19:27:55.175Z,12.21
2023-04-02T19:30:39.608Z,12.11
2023-04-02T19:33:19.049Z,12.15
2023-04-02T19:35:53.888Z,12.08
2023-04-02T19:38:44.572Z,11.96
2023-04-02T19:41:26.230Z,11.98
2023-04-02T19:43:56.089Z,12.00
2023-04-02T19:46:24.822Z,11.98
2023-04-02T19:48:59.845Z,11.95
2023-04-02T19:51:27.833Z,11.95
2023-04-02T19:53:55.739Z,11.91
2023-04-02T19:56:26.816Z,11.85
2023-04-02T19:58:56.621Z,11.79
2023-04-02T20:01:24.631Z,11.79
2023-04-02T20:03:52.614Z,11.76
2023-04-02T20:06:21.451Z,11.45
2023-04-02T20:08:49.362Z,11.75
2023-04-02T20:11:17.454Z,11.71
2023-04-02T20:13:46.696Z,11.66
2023-04-02T20:16:14.935Z,11.65
2023-04-02T20:18:43.229Z,11.49
2023-04-02T20:21:11.577Z,11.56
2023-04-02T20:23:39.626Z,11.47
2023-04-02T20:26:07.902Z,11.45
2023-04-02T20:28:36.182Z,11.39
2023-04-02T20:31:10.682Z,11.33
2023-04-02T20:33:39.595Z,11.38
2023-04-02T20:36:09.513Z,11.36
2023-04-02T20:38:37.700Z,11.35
2023-04-02T20:41:07.652Z,11.35
2023-04-02T20:43:36.227Z,11.03
2023-04-02T20:46:08.922Z,11.34
2023-04-02T20:48:41.038Z,11.28
2023-04-02T20:51:10.537Z,11.18
2023-04-02T20:53:39.195Z,11.17
2023-04-02T20:56:08.711Z,11.03
2023-04-02T20:58:38.133Z,11.13
2023-04-02T21:01:11.524Z,11.16
2023-04-02T21:03:40.967Z,10.90
2023-04-02T21:06:14.080Z,10.65
2023-04-02T21:08:42.025Z,10.86
2023-04-02T21:11:10.906Z,10.94
2023-04-02T21:13:39.192Z,10.87
2023-04-02T21:16:14.894Z,10.87
2023-04-02T21:18:44.690Z,10.82
2023-04-02T21:21:14.414Z,10.64
2023-04-02T21:23:43.510Z,10.77
2023-04-02T21:26:12.901Z,10.72
2023-04-02T21:28:40.817Z,10.65
2023-04-02T21:31:11.616Z,10.59
2023-04-02T21:33:41.458Z,10.55
2023-04-02T21:36:13.463Z,10.42
2023-04-02T21:38:43.426Z,10.02
2023-04-02T21:41:13.113Z,10.57
2023-04-02T21:43:41.507Z,10.57
2023-04-02T21:46:09.638Z,10.34
2023-04-02T21:48:37.630Z,10.40
2023-04-02T21:51:07.754Z,10.44
2023-04-02T21:53:37.071Z,10.43
2023-04-02T21:56:06.953Z,10.43
2023-04-02T21:58:35.494Z,10.40
2023-04-02T22:01:05.349Z,10.36
2023-04-02T22:03:35.842Z,10.20
2023-04-02T22:06:05.638Z,10.23
2023-04-02T22:08:33.808Z,10.29
2023-04-02T22:11:08.295Z,10.26
2023-04-02T22:13:37.194Z,10.22
2023-04-02T22:16:07.079Z,10.19
2023-04-02T22:18:35.740Z,9.82
2023-04-02T22:21:03.582Z,10.12
2023-04-02T22:23:31.969Z,10.08
2023-04-02T22:26:01.501Z,9.98
2023-04-02T22:28:30.853Z,9.95
2023-04-02T22:31:05.516Z,9.99
2023-04-02T22:33:33.931Z,9.88
2023-04-02T22:36:04.730Z,9.91
2023-04-02T22:38:32.916Z,9.87
2023-04-02T22:41:08.369Z,9.70
2023-04-02T22:43:38.722Z,9.67
2023-04-02T22:46:08.360Z,9.66
2023-04-02T22:48:36.691Z,9.44
2023-04-02T22:51:04.880Z,9.48
2023-04-02T22:53:32.908Z,9.28
2023-04-02T22:56:03.999Z,9.17
2023-04-02T22:58:31.877Z,8.93
2023-04-02T23:01:05.218Z,8.73
2023-04-02T23:03:33.172Z,8.68
2023-04-02T23:06:02.000Z,8.61
2023-04-02T23:08:29.983Z,8.51
2023-04-02T23:11:02.723Z,8.50
2023-04-02T23:13:30.863Z,8.45
2023-04-02T23:15:59.327Z,8.28
2023-04-02T23:18:28.673Z,8.19
2023-04-02T23:20:57.433Z,8.00
2023-04-02T23:23:25.399Z,7.94
2023-04-02T23:26:04.546Z,7.65
2023-04-02T23:28:32.467Z,7.75
2023-04-02T23:31:00.891Z,7.70
2023-04-02T23:33:30.593Z,7.64
2023-04-02T23:35:58.638Z,7.60
2023-04-02T23:38:27.929Z,7.49
2023-04-02T23:40:55.940Z,7.49
2023-04-02T23:43:23.800Z,7.46
2023-04-02T23:45:52.007Z,6.85
2023-04-02T23:48:19.881Z,7.40
2023-04-02T23:50:49.163Z,7.42
2023-04-02T23:53:18.753Z,7.39
2023-04-02T23:55:46.875Z,7.42
2023-04-02T23:58:14.797Z,7.09
